Chickasha, OK

3:17 AM CDT on August 31, 2014 (GMT -0500)
Oakmont | Change Station
CLOSE
Current Station
Personal Weather Station
Location: Blanchard, OK
Elevation: 1355 ft
Nearby Weather Stations

Elev 1355 ft 35.13 °N, 97.69 °W | Updated 21 seconds ago

Clear
Clear
74.6 °F
Feels Like 75 °F
N
1.0
Wind Variable Wind from South
Gusts 6.0 mph

Today
High -- | Low -- °F
--% Chance of Precip.
Yesterday
High -- | Low -- °F
Precip. -- in
7:03 AM 7:59 PM
Waxing Crescent, 29% visible
Pressure 29.92 in
Visibility 10.0 miles
Clouds Clear
Heat Index 75 °F
Dew Point 67 °F
Humidity 77%
Rainfall -999.00 in
Snow Depth Not available.
UV 0 out of 12
Pollen 9.90 out of 12
Ozone Good
PM2.5 Good
Flu Activity Not available.
METAR KRQO 310755Z AUTO 17008KT 10SM CLR 22/18 A2992 RMK AO2

More Conditions Fewer Conditions

Pressure 29.92 in
Visibility 10.0 miles
Clouds Clear
Heat Index 75 °F
Dew Point 67 °F
Humidity 77%
Rainfall -999.00 in
Snow Depth Not available.
UV 0 out of 12
Pollen 9.90 out of 12
Ozone Good
PM2.5 Good
Flu Activity Not available.
METAR KRQO 310755Z AUTO 17008KT 10SM CLR 22/18 A2992 RMK AO2

More Conditions Fewer Conditions

10-Day Weather Forecast

Almanac

Astronomy

Aug. 31, 2014 Rise Set
Actual Time 7:03 AM CDT 7:59 PM CDT
Civil Twilight 6:37 AM CDT 8:25 PM CDT
Nautical Twilight 6:07 AM CDT 8:56 PM CDT
Astronomical Twilight 5:35 AM CDT 9:27 PM CDT
Moon 12:37 PM CDT 11:30 PM CDT
Length of Visible Light 13h 47m
Length of Day
12h 56m
Tomorrow will be 2m 6s shorter.
Waxing Crescent, 29% of the Moon is Illuminated
Today
Waxing Crescent
Sep 2
First Quarter
Sep 8
Full
Sep 15
Last Quarter
Sep 24
New

Today's Extremes

State Highs State Lows

Community

WunderPhotos

Upload Photos

1,748,820 photos uploaded!

Nearby

Air Quality

  Air Quality AQ Index Pollutant
Yesterday Moderate
OZONE
Yesterday Good
PM2.5
Current Good
PM2.5
Current Good
OZONE
Sunday Moderate
OZONE
Sunday Good
PM2.5
Monday Moderate
OZONE
Monday Good
PM2.5
Tuesday Moderate
OZONE
Tuesday Good
PM2.5
Wednesday Moderate
OZONE
Wednesday Good
PM2.5

Snow Depth

Station Depth Elevation
No new snow has been reported.

Earthquake Activity

City Distance Mag. Time & Date
Enid, Oklahoma 107 miles 3.7 2:20 AM CDT
2014-08-31
Guthrie, Oklahoma 62 miles 3.2 10:39 AM CDT
2014-08-29
Perry, Oklahoma 84 miles 3.0 4:52 AM CDT
2014-08-29
Perry, Oklahoma 86 miles 3.1 10:01 PM CDT
2014-08-28
Minimum magnitude displayed is 2.5.

Coastal Water Temperatures

Place Temperature
No Stations Reporting

Nearby Weather Stations